createdAt,value
2023-03-08T00:05:05.079Z,96408.16
2023-03-08T00:10:10.402Z,96400.88
2023-03-08T00:15:14.876Z,96412.53
2023-03-08T00:20:20.181Z,96413.03
2023-03-08T00:25:24.127Z,96412.66
2023-03-08T00:30:29.429Z,96419.69
2023-03-08T00:35:34.875Z,96421.34
2023-03-08T00:40:38.769Z,96417.78
2023-03-08T00:45:42.588Z,96409.72
2023-03-08T00:50:47.813Z,96409.56
2023-03-08T00:55:53.113Z,96414.25
2023-03-08T01:00:57.397Z,96417.47
2023-03-08T01:06:07.898Z,96412.91
2023-03-08T01:11:17.288Z,96407.06
2023-03-08T01:16:24.200Z,96405.09
2023-03-08T01:21:30.712Z,96395.50
2023-03-08T01:26:34.609Z,96388.75
2023-03-08T01:31:38.438Z,96397.69
2023-03-08T01:36:44.043Z,96394.66
2023-03-08T01:41:47.944Z,96397.88
2023-03-08T01:46:52.353Z,96393.41
2023-03-08T01:52:03.033Z,96391.81
2023-03-08T01:57:11.768Z,96383.63
2023-03-08T02:02:17.211Z,96389.00
2023-03-08T02:07:22.509Z,96400.31
2023-03-08T02:12:27.868Z,96399.06
2023-03-08T02:17:33.890Z,96413.59
2023-03-08T02:22:41.450Z,96413.94
2023-03-08T02:27:45.846Z,96423.22
2023-03-08T02:32:50.062Z,96441.41
2023-03-08T02:37:55.538Z,96439.25
2023-03-08T02:42:59.422Z,96450.41
2023-03-08T02:48:03.995Z,96462.47
2023-03-08T02:53:09.846Z,96464.94
2023-03-08T02:58:13.992Z,96482.06
2023-03-08T03:03:18.612Z,96470.47
2023-03-08T03:08:23.878Z,96481.75
2023-03-08T03:13:32.079Z,96488.53
2023-03-08T03:18:36.879Z,96495.31
2023-03-08T03:23:42.820Z,96509.16
2023-03-08T03:28:52.252Z,96516.06
2023-03-08T03:33:56.316Z,96519.75
2023-03-08T03:39:04.977Z,96529.75
2023-03-08T03:44:11.538Z,96527.63
2023-03-08T03:49:16.555Z,96531.31
2023-03-08T03:54:24.114Z,96534.41
2023-03-08T03:59:28.425Z,96557.91
2023-03-08T04:04:33.024Z,96565.88
2023-03-08T04:09:39.129Z,96564.91
2023-03-08T04:14:47.580Z,96562.66
2023-03-08T04:19:53.244Z,96591.22
2023-03-08T04:25:00.402Z,96585.91
2023-03-08T04:30:14.502Z,96599.50
2023-03-08T04:35:19.340Z,96609.22
2023-03-08T04:40:29.861Z,96627.34
2023-03-08T04:45:36.384Z,96620.75
2023-03-08T04:50:45.569Z,96635.66
2023-03-08T04:55:51.753Z,96632.88
2023-03-08T05:00:55.886Z,96631.22
2023-03-08T05:06:00.850Z,96635.03
2023-03-08T05:11:06.924Z,96646.09
2023-03-08T05:16:13.684Z,96655.34
2023-03-08T05:21:19.724Z,96646.88
2023-03-08T05:26:30.066Z,96654.72
2023-03-08T05:31:36.743Z,96657.75
2023-03-08T05:36:43.738Z,96664.22
2023-03-08T05:41:50.130Z,96691.56
2023-03-08T05:47:00.405Z,96667.25
2023-03-08T05:52:05.436Z,96669.25
2023-03-08T05:57:11.148Z,96688.81
2023-03-08T06:02:15.590Z,96705.22
2023-03-08T06:07:23.997Z,96701.94
2023-03-08T06:12:44.803Z,96714.25
2023-03-08T06:17:53.551Z,96721.22
2023-03-08T06:23:00.381Z,96715.03
2023-03-08T06:28:06.528Z,96739.28
2023-03-08T06:33:15.173Z,96734.63
2023-03-08T06:38:21.961Z,96752.00
2023-03-08T06:43:27.805Z,96749.53
2023-03-08T06:48:31.909Z,96756.34
2023-03-08T06:53:38.214Z,96772.63
2023-03-08T06:58:45.036Z,96770.13
2023-03-08T07:03:50.199Z,96770.03
2023-03-08T07:08:54.267Z,96769.69
2023-03-08T07:14:00.308Z,96775.66
2023-03-08T07:19:04.566Z,96787.78
2023-03-08T07:24:08.815Z,96783.50
2023-03-08T07:29:14.243Z,96798.28
2023-03-08T07:34:18.152Z,96799.59
2023-03-08T07:39:23.216Z,96810.53
2023-03-08T07:44:28.716Z,96820.50
2023-03-08T07:49:32.586Z,96822.13
2023-03-08T07:54:36.466Z,96823.50
2023-03-08T07:59:42.005Z,96834.81
2023-03-08T08:04:45.938Z,96840.16
2023-03-08T08:09:49.950Z,96845.78
2023-03-08T08:14:55.202Z,96840.81
2023-03-08T08:19:59.584Z,96851.84
2023-03-08T08:25:05.742Z,96843.38
2023-03-08T08:30:14.962Z,96830.50
2023-03-08T08:35:19.057Z,96830.00
2023-03-08T08:40:23.085Z,96829.53
2023-03-08T08:45:28.827Z,96828.38
2023-03-08T08:50:33.222Z,96828.38
2023-03-08T08:55:39.377Z,96824.84
2023-03-08T09:00:47.471Z,96828.34
2023-03-08T09:05:51.313Z,96824.81
2023-03-08T09:10:55.151Z,96822.72
2023-03-08T09:16:00.608Z,96828.38
2023-03-08T09:21:04.892Z,96829.41
2023-03-08T09:26:09.345Z,96850.88
2023-03-08T09:31:17.879Z,96845.47
2023-03-08T09:36:22.449Z,96850.84
2023-03-08T09:41:45.438Z,96863.22
2023-03-08T09:46:54.457Z,96856.34
2023-03-08T09:52:04.366Z,96850.91
2023-03-08T09:57:14.141Z,96850.53
2023-03-08T10:02:27.221Z,96838.88
2023-03-08T10:07:37.460Z,96833.34
2023-03-08T10:12:52.514Z,96828.38
2023-03-08T10:18:02.822Z,96807.84
2023-03-08T10:23:13.996Z,96794.72
2023-03-08T10:28:20.350Z,96795.63
2023-03-08T10:33:27.834Z,96793.63
2023-03-08T10:38:34.183Z,96792.56
2023-03-08T10:43:42.409Z,96787.84
2023-03-08T10:48:48.238Z,96788.19
2023-03-08T10:53:56.214Z,96785.72
2023-03-08T10:59:00.420Z,96782.56
2023-03-08T11:04:07.400Z,96774.53
2023-03-08T11:09:22.828Z,96776.66
2023-03-08T11:14:27.687Z,96774.72
2023-03-08T11:19:54.198Z,96769.22
2023-03-08T11:25:19.232Z,96769.81
2023-03-08T11:30:33.846Z,96747.81
2023-03-08T11:35:46.412Z,96749.72
2023-03-08T11:40:56.380Z,96741.69
2023-03-08T11:46:07.859Z,96746.25
2023-03-08T11:51:19.807Z,96731.66
2023-03-08T11:56:40.857Z,96737.69
2023-03-08T12:01:48.995Z,96734.16
2023-03-08T12:06:56.481Z,96729.75
2023-03-08T12:12:04.653Z,96729.94
2023-03-08T12:17:14.602Z,96726.31
2023-03-08T12:22:33.566Z,96709.34
2023-03-08T12:27:43.830Z,96698.38
2023-03-08T12:32:49.398Z,96688.78
2023-03-08T12:37:59.138Z,96679.06
2023-03-08T12:43:12.410Z,96686.09
2023-03-08T12:48:26.109Z,96687.34
2023-03-08T12:53:44.451Z,96679.03
2023-03-08T12:58:53.207Z,96659.78
2023-03-08T13:03:57.670Z,96656.56
2023-03-08T13:09:14.375Z,96655.44
2023-03-08T13:14:27.376Z,96653.78
2023-03-08T13:19:31.997Z,96645.06
2023-03-08T13:24:44.050Z,96648.66
2023-03-08T13:29:48.284Z,96638.31
2023-03-08T13:35:00.277Z,96620.31
2023-03-08T13:40:16.464Z,96616.59
2023-03-08T13:45:20.576Z,96605.28
2023-03-08T13:50:28.935Z,96590.75
2023-03-08T13:55:36.601Z,96581.63
2023-03-08T14:00:41.108Z,96571.31
2023-03-08T14:05:45.832Z,96568.22
2023-03-08T14:10:53.051Z,96557.25
2023-03-08T14:15:58.769Z,96557.63
2023-03-08T14:21:05.791Z,96544.13
2023-03-08T14:26:34.220Z,96549.13
2023-03-08T14:31:39.335Z,96531.81
2023-03-08T14:36:49.520Z,96522.31
2023-03-08T14:41:55.742Z,96509.19
2023-03-08T14:47:09.319Z,96503.41
2023-03-08T14:52:21.314Z,96490.47
2023-03-08T14:57:28.317Z,96481.66
2023-03-08T15:02:32.394Z,96467.78
2023-03-08T15:07:37.907Z,96457.06
2023-03-08T15:12:43.640Z,96448.41
2023-03-08T15:17:48.260Z,96444.75
2023-03-08T15:22:54.360Z,96442.03
2023-03-08T15:27:59.759Z,96442.94
2023-03-08T15:33:03.865Z,96418.31
2023-03-08T15:38:08.189Z,96423.31
2023-03-08T15:43:13.634Z,96408.03
2023-03-08T15:48:19.197Z,96407.22
2023-03-08T15:53:34.956Z,96406.56
2023-03-08T15:58:41.846Z,96412.28
2023-03-08T16:03:46.089Z,96423.81
2023-03-08T16:08:50.381Z,96419.72
2023-03-08T16:13:55.751Z,96430.94
2023-03-08T16:18:59.649Z,96424.75
2023-03-08T16:24:03.882Z,96447.19
2023-03-08T16:29:09.223Z,96440.75
2023-03-08T16:34:13.299Z,96439.09
2023-03-08T16:39:17.439Z,96443.75
2023-03-08T16:44:25.399Z,96452.84
2023-03-08T16:49:29.273Z,96454.47
2023-03-08T16:54:33.307Z,96463.91
2023-03-08T16:59:40.579Z,96461.50
2023-03-08T17:04:45.047Z,96470.91
2023-03-08T17:09:50.639Z,96464.75
2023-03-08T17:14:56.147Z,96459.69
2023-03-08T17:20:00.957Z,96451.78
2023-03-08T17:25:05.963Z,96441.03
2023-03-08T17:30:15.816Z,96428.63
2023-03-08T17:35:19.868Z,96420.19
2023-03-08T17:40:24.394Z,96410.63
2023-03-08T17:45:30.357Z,96411.88
2023-03-08T17:50:35.050Z,96405.28
2023-03-08T17:55:41.489Z,96400.72
2023-03-08T18:00:47.036Z,96382.06
2023-03-08T18:05:52.816Z,96380.81
2023-03-08T18:10:56.877Z,96377.31
2023-03-08T18:16:03.548Z,96366.28
2023-03-08T18:21:13.777Z,96367.78
2023-03-08T18:26:19.022Z,96347.41
2023-03-08T18:31:26.225Z,96329.22
2023-03-08T18:36:31.020Z,96325.00
2023-03-08T18:41:35.548Z,96319.69
2023-03-08T18:46:41.109Z,96309.44
2023-03-08T18:51:45.496Z,96297.38
2023-03-08T18:56:53.816Z,96291.16
2023-03-08T19:01:59.118Z,96270.91
2023-03-08T19:07:03.561Z,96259.91
2023-03-08T19:12:07.770Z,96246.31
2023-03-08T19:17:15.019Z,96251.00
2023-03-08T19:22:20.522Z,96237.50
2023-03-08T19:27:24.598Z,96217.88
2023-03-08T19:32:30.135Z,96217.06
2023-03-08T19:37:34.444Z,96215.66
2023-03-08T19:42:38.908Z,96203.66
2023-03-08T19:47:44.130Z,96203.19
2023-03-08T19:52:48.028Z,96189.81
2023-03-08T19:57:52.259Z,96173.56
2023-03-08T20:02:59.519Z,96169.22
2023-03-08T20:08:03.839Z,96156.59
2023-03-08T20:13:08.012Z,96155.69
2023-03-08T20:18:13.645Z,96142.81
2023-03-08T20:23:18.110Z,96151.63
2023-03-08T20:28:22.008Z,96146.75
2023-03-08T20:33:27.349Z,96143.63
2023-03-08T20:38:31.315Z,96141.56
2023-03-08T20:43:35.277Z,96134.50
2023-03-08T20:48:42.658Z,96129.00
2023-03-08T20:53:49.378Z,96131.31
2023-03-08T20:58:55.240Z,96131.13
2023-03-08T21:04:00.986Z,96123.09
2023-03-08T21:09:06.217Z,96120.34
2023-03-08T21:14:10.941Z,96116.56
2023-03-08T21:19:16.870Z,96102.28
2023-03-08T21:24:23.010Z,96112.91
2023-03-08T21:29:28.258Z,96110.72
2023-03-08T21:34:33.861Z,96107.38
2023-03-08T21:39:37.993Z,96101.25
2023-03-08T21:44:42.581Z,96092.16
2023-03-08T21:49:48.247Z,96092.16
2023-03-08T21:54:52.580Z,96091.84
2023-03-08T21:59:56.479Z,96091.84
2023-03-08T22:05:04.228Z,96089.53
2023-03-08T22:10:10.068Z,96075.25
2023-03-08T22:15:15.960Z,96083.22
2023-03-08T22:20:23.035Z,96077.53
2023-03-08T22:25:26.874Z,96069.66
2023-03-08T22:30:31.117Z,96073.88
2023-03-08T22:35:36.949Z,96076.13
2023-03-08T22:40:41.884Z,96072.44
2023-03-08T22:45:46.305Z,96073.88
2023-03-08T22:51:04.712Z,96083.84
2023-03-08T22:56:25.892Z,96087.53
2023-03-08T23:01:32.668Z,96093.91
2023-03-08T23:06:38.097Z,96093.75
2023-03-08T23:11:43.020Z,96084.47
2023-03-08T23:16:47.529Z,96090.66
2023-03-08T23:21:53.204Z,96077.94
2023-03-08T23:27:01.795Z,96087.91
2023-03-08T23:32:06.703Z,96073.78
2023-03-08T23:37:12.072Z,96083.13
2023-03-08T23:42:16.496Z,96081.78
2023-03-08T23:47:21.369Z,96073.22
2023-03-08T23:52:27.215Z,96054.91
2023-03-08T23:57:31.299Z,96067.66
